createdAt,value
2019-03-25T00:01:01.496Z,94478.77
2019-03-25T00:03:30.166Z,94478.45
2019-03-25T00:05:58.886Z,94477.00
2019-03-25T00:08:27.561Z,94469.53
2019-03-25T00:10:56.228Z,94468.50
2019-03-25T00:13:24.906Z,94460.64
2019-03-25T00:15:53.567Z,94438.08
2019-03-25T00:18:22.284Z,94462.38
2019-03-25T00:20:50.951Z,94463.48
2019-03-25T00:23:19.612Z,94463.25
2019-03-25T00:25:48.272Z,94456.64
2019-03-25T00:28:16.936Z,94455.78
2019-03-25T00:30:45.608Z,94460.13
2019-03-25T00:33:14.292Z,94452.92
2019-03-25T00:35:42.958Z,94457.70
2019-03-25T00:38:11.617Z,94453.69
2019-03-25T00:40:40.290Z,94457.12
2019-03-25T00:43:08.953Z,94449.64
2019-03-25T00:45:37.626Z,94439.03
2019-03-25T00:48:06.293Z,94438.38
2019-03-25T00:50:34.964Z,94442.11
2019-03-25T00:53:03.647Z,94442.45
2019-03-25T00:55:32.308Z,94435.13
2019-03-25T00:58:00.975Z,94430.97
2019-03-25T01:00:29.650Z,94429.00
2019-03-25T01:02:58.319Z,94423.02
2019-03-25T01:05:26.987Z,94417.73
2019-03-25T01:07:55.650Z,94422.73
2019-03-25T01:10:24.308Z,94419.59
2019-03-25T01:12:52.972Z,94420.23
2019-03-25T01:15:21.649Z,94423.27
2019-03-25T01:17:50.320Z,94420.15
2019-03-25T01:20:19.019Z,94419.91
2019-03-25T01:22:47.728Z,94428.34
2019-03-25T01:25:16.392Z,94430.16
2019-03-25T01:27:45.064Z,94423.24
2019-03-25T01:30:13.734Z,94425.80
2019-03-25T01:32:42.411Z,94426.44
2019-03-25T01:35:11.169Z,94425.80
2019-03-25T01:37:39.856Z,94419.47
2019-03-25T01:40:09.010Z,94424.77
2019-03-25T01:42:37.675Z,94418.97
2019-03-25T01:45:07.036Z,94418.88
2019-03-25T01:47:35.719Z,94412.03
2019-03-25T01:50:06.387Z,94415.23
2019-03-25T01:52:35.044Z,94410.11
2019-03-25T01:55:13.055Z,94411.35
2019-03-25T01:57:34.295Z,94410.73
2019-03-25T02:00:03.774Z,94414.02
2019-03-25T02:02:32.438Z,94416.98
2019-03-25T02:05:01.099Z,94409.50
2019-03-25T02:07:29.764Z,94408.00
2019-03-25T02:09:58.433Z,94401.61
2019-03-25T02:12:27.103Z,94401.91
2019-03-25T02:14:55.765Z,94387.01
2019-03-25T02:17:24.426Z,94384.09
2019-03-25T02:19:53.108Z,94380.17
2019-03-25T02:22:21.769Z,94373.50
2019-03-25T02:24:50.435Z,94374.81
2019-03-25T02:27:19.110Z,94371.66
2019-03-25T02:29:47.767Z,94370.97
2019-03-25T02:32:16.437Z,94368.47
2019-03-25T02:34:45.114Z,94371.42
2019-03-25T02:37:13.770Z,94368.23
2019-03-25T02:39:42.427Z,94369.98
2019-03-25T02:42:11.104Z,94363.05
2019-03-25T02:44:39.764Z,94357.78
2019-03-25T02:47:08.416Z,94358.52
2019-03-25T02:49:37.191Z,94357.08
2019-03-25T02:52:05.848Z,94351.67
2019-03-25T02:54:34.520Z,94350.38
2019-03-25T02:57:03.276Z,94355.61
2019-03-25T02:59:31.957Z,94352.34
2019-03-25T03:02:00.627Z,94351.20
2019-03-25T03:04:29.303Z,94340.53
2019-03-25T03:06:57.960Z,94342.38
2019-03-25T03:09:26.688Z,94334.72
2019-03-25T03:11:55.339Z,94337.45
2019-03-25T03:14:24.004Z,94331.44
2019-03-25T03:16:52.662Z,94328.94
2019-03-25T03:19:21.328Z,94331.33
2019-03-25T03:21:50.003Z,94330.59
2019-03-25T03:24:18.669Z,94339.45
2019-03-25T03:26:47.326Z,94335.11
2019-03-25T03:29:15.989Z,94337.68
2019-03-25T03:31:44.661Z,94339.92
2019-03-25T03:34:13.330Z,94335.02
2019-03-25T03:36:42.020Z,94339.83
2019-03-25T03:39:10.668Z,94337.89
2019-03-25T03:41:39.446Z,94335.08
2019-03-25T03:44:08.173Z,94337.62
2019-03-25T03:46:36.881Z,94334.77
2019-03-25T03:49:05.545Z,94341.25
2019-03-25T03:51:34.809Z,94335.55
2019-03-25T03:54:03.586Z,94325.53
2019-03-25T03:56:32.555Z,94324.48
2019-03-25T03:59:04.027Z,94330.62
2019-03-25T04:01:32.688Z,94331.66
2019-03-25T04:04:01.382Z,94328.82
2019-03-25T04:06:30.025Z,94327.47
2019-03-25T04:08:58.702Z,94329.56
2019-03-25T04:11:27.370Z,94326.25
2019-03-25T04:13:56.054Z,94324.45
2019-03-25T04:16:24.728Z,94318.62
2019-03-25T04:18:53.392Z,94326.56
2019-03-25T04:21:22.061Z,94318.32
2019-03-25T04:23:50.749Z,94310.57
2019-03-25T04:26:28.465Z,94314.00
2019-03-25T04:28:49.818Z,94310.24
2019-03-25T04:31:18.496Z,94315.48
2019-03-25T04:33:47.143Z,94314.72
2019-03-25T04:36:15.835Z,94318.76
2019-03-25T04:38:44.501Z,94314.87
2019-03-25T04:41:13.176Z,94316.37
2019-03-25T04:43:41.911Z,94323.53
2019-03-25T04:46:10.531Z,94319.03
2019-03-25T04:48:39.201Z,94322.92
2019-03-25T04:51:08.167Z,94306.91
2019-03-25T04:53:36.950Z,94305.41
2019-03-25T04:56:05.618Z,94301.05
2019-03-25T04:58:34.287Z,94305.38
2019-03-25T05:01:02.959Z,94308.48
2019-03-25T05:03:31.659Z,94308.40
2019-03-25T05:06:00.320Z,94311.17
2019-03-25T05:08:28.988Z,94310.80
2019-03-25T05:10:57.667Z,94306.21
2019-03-25T05:13:26.342Z,94304.80
2019-03-25T05:15:55.008Z,94302.95
2019-03-25T05:18:23.671Z,94310.58
2019-03-25T05:20:52.338Z,94308.80
2019-03-25T05:23:21.002Z,94303.77
2019-03-25T05:25:49.675Z,94305.77
2019-03-25T05:28:18.354Z,94305.25
2019-03-25T05:30:47.028Z,94300.52
2019-03-25T05:33:15.689Z,94291.64
2019-03-25T05:35:46.743Z,94291.70
2019-03-25T05:38:14.756Z,94294.38
2019-03-25T05:40:43.438Z,94289.72
2019-03-25T05:43:12.108Z,94300.27
2019-03-25T05:45:40.771Z,94294.09
2019-03-25T05:48:09.459Z,94293.31
2019-03-25T05:50:38.139Z,94281.70
2019-03-25T05:53:06.822Z,94283.40
2019-03-25T05:55:35.997Z,94283.05
2019-03-25T05:58:04.679Z,94280.70
2019-03-25T06:00:34.912Z,94269.37
2019-03-25T06:03:03.587Z,94271.69
2019-03-25T06:05:32.281Z,94270.40
2019-03-25T06:08:00.960Z,94275.74
2019-03-25T06:10:29.633Z,94273.48
2019-03-25T06:12:58.362Z,94274.67
2019-03-25T06:15:27.056Z,94278.11
2019-03-25T06:17:55.727Z,94274.21
2019-03-25T06:20:24.407Z,94279.74
2019-03-25T06:22:53.099Z,94274.70
2019-03-25T06:25:21.795Z,94270.08
2019-03-25T06:27:50.544Z,94268.09
2019-03-25T06:30:20.028Z,94261.92
2019-03-25T06:32:48.707Z,94259.61
2019-03-25T06:35:17.374Z,94255.33
2019-03-25T06:37:46.066Z,94249.45
2019-03-25T06:40:14.845Z,94253.05
2019-03-25T06:42:43.527Z,94253.03
2019-03-25T06:45:13.420Z,94248.82
2019-03-25T06:47:42.137Z,94228.64
2019-03-25T06:50:11.072Z,94245.28
2019-03-25T06:52:39.722Z,94240.58
2019-03-25T06:55:09.153Z,94241.47
2019-03-25T06:57:38.825Z,94240.83
2019-03-25T07:00:09.576Z,94236.48
2019-03-25T07:02:38.260Z,94236.48
2019-03-25T07:05:07.363Z,94242.55
2019-03-25T07:07:36.053Z,94243.95
2019-03-25T07:10:06.876Z,94250.39
2019-03-25T07:12:36.954Z,94250.39
2019-03-25T07:15:07.992Z,94252.59
2019-03-25T07:17:36.684Z,94231.09
2019-03-25T07:20:07.689Z,94246.14
2019-03-25T07:22:36.377Z,94251.31
2019-03-25T07:25:06.260Z,94243.09
2019-03-25T07:27:37.026Z,94245.19
2019-03-25T07:30:08.076Z,94238.32
2019-03-25T07:32:36.886Z,94242.48
2019-03-25T07:35:07.269Z,94242.48
2019-03-25T07:37:35.964Z,94241.81
2019-03-25T07:40:10.518Z,94235.66
2019-03-25T07:42:39.208Z,94242.97
2019-03-25T07:45:08.902Z,94221.37
2019-03-25T07:47:38.076Z,94233.44
2019-03-25T07:50:08.043Z,94225.00
2019-03-25T07:52:36.804Z,94233.02
2019-03-25T07:55:06.287Z,94229.25
2019-03-25T07:57:35.186Z,94223.87
2019-03-25T08:00:13.393Z,94225.41
2019-03-25T08:02:36.832Z,94214.95
2019-03-25T08:05:06.435Z,94210.78
2019-03-25T08:07:35.113Z,94206.61
2019-03-25T08:10:04.531Z,94200.30
2019-03-25T08:12:33.250Z,94199.80
2019-03-25T08:15:01.974Z,94194.08
2019-03-25T08:17:30.667Z,94186.27
2019-03-25T08:19:59.398Z,94193.55
2019-03-25T08:22:28.082Z,94185.22
2019-03-25T08:24:56.772Z,94179.20
2019-03-25T08:27:25.482Z,94177.37
2019-03-25T08:29:54.348Z,94179.73
2019-03-25T08:32:23.153Z,94174.38
2019-03-25T08:34:51.815Z,94173.85
2019-03-25T08:37:20.515Z,94173.30
2019-03-25T08:39:49.206Z,94167.91
2019-03-25T08:42:17.884Z,94158.12
2019-03-25T08:44:46.640Z,94151.64
2019-03-25T08:47:15.429Z,94143.40
2019-03-25T08:49:44.318Z,94139.21
2019-03-25T08:52:13.286Z,94101.64
2019-03-25T08:54:42.068Z,94128.24
2019-03-25T08:57:10.840Z,94126.63
2019-03-25T08:59:39.520Z,94117.69
2019-03-25T09:02:08.232Z,94116.09
2019-03-25T09:04:37.048Z,94111.45
2019-03-25T09:07:05.729Z,94102.77
2019-03-25T09:09:34.420Z,94104.20
2019-03-25T09:12:03.184Z,94093.30
2019-03-25T09:14:32.074Z,94094.92
2019-03-25T09:17:00.807Z,94090.86
2019-03-25T09:19:29.485Z,94083.65
2019-03-25T09:21:58.170Z,94083.19
2019-03-25T09:24:26.884Z,94079.28
2019-03-25T09:26:55.631Z,94073.95
2019-03-25T09:29:24.443Z,94070.20
2019-03-25T09:31:53.231Z,94052.17
2019-03-25T09:34:21.936Z,94060.88
2019-03-25T09:36:50.832Z,94054.53
2019-03-25T09:39:19.535Z,94052.59
2019-03-25T09:41:48.235Z,94061.13
2019-03-25T09:44:16.922Z,94053.38
2019-03-25T09:46:45.611Z,94036.77
2019-03-25T09:49:14.296Z,94031.11
2019-03-25T09:51:43.008Z,94031.09
2019-03-25T09:54:11.699Z,94023.34
2019-03-25T09:56:40.392Z,94016.20
2019-03-25T09:59:09.280Z,94010.34
2019-03-25T10:01:37.944Z,94010.30
2019-03-25T10:04:06.800Z,94006.39
2019-03-25T10:06:35.448Z,94005.33
2019-03-25T10:09:05.664Z,93996.50
2019-03-25T10:11:34.361Z,93993.25
2019-03-25T10:14:03.097Z,93991.47
2019-03-25T10:16:31.767Z,93975.84
2019-03-25T10:19:00.459Z,93978.84
2019-03-25T10:21:29.298Z,93972.43
2019-03-25T10:23:58.026Z,93962.42
2019-03-25T10:26:26.688Z,93962.58
2019-03-25T10:28:55.412Z,93958.53
2019-03-25T10:31:24.098Z,93953.28
2019-03-25T10:33:52.888Z,93944.88
2019-03-25T10:36:21.558Z,93938.78
2019-03-25T10:38:50.271Z,93939.91
2019-03-25T10:41:18.986Z,93939.13
2019-03-25T10:43:47.895Z,93929.62
2019-03-25T10:46:16.617Z,93921.69
2019-03-25T10:48:45.309Z,93916.05
2019-03-25T10:51:13.996Z,93915.02
2019-03-25T10:53:42.687Z,93909.50
2019-03-25T10:56:11.406Z,93916.20
2019-03-25T10:58:40.068Z,93900.98
2019-03-25T11:01:09.663Z,93895.64
2019-03-25T11:03:39.603Z,93885.26
2019-03-25T11:06:08.387Z,93886.63
2019-03-25T11:08:37.316Z,93879.31
2019-03-25T11:11:06.430Z,93870.03
2019-03-25T11:13:35.341Z,93864.34
2019-03-25T11:16:04.143Z,93860.02
2019-03-25T11:18:38.256Z,93855.17
2019-03-25T11:21:16.547Z,93849.68
2019-03-25T11:23:45.353Z,93838.31
2019-03-25T11:26:14.073Z,93832.48
2019-03-25T11:28:42.832Z,93835.83
2019-03-25T11:31:12.009Z,93819.66
2019-03-25T11:33:40.685Z,93810.70
2019-03-25T11:36:09.594Z,93805.95
2019-03-25T11:38:38.381Z,93792.80
2019-03-25T11:41:07.199Z,93794.35
2019-03-25T11:43:35.970Z,93790.44
2019-03-25T11:46:05.520Z,93774.72
2019-03-25T11:48:34.343Z,93783.13
2019-03-25T11:51:03.034Z,93745.66
2019-03-25T11:53:31.797Z,93770.59
2019-03-25T11:56:00.508Z,93755.65
2019-03-25T11:58:29.363Z,93759.59
2019-03-25T12:00:58.114Z,93752.25
2019-03-25T12:03:26.816Z,93745.17
2019-03-25T12:05:55.520Z,93740.45
2019-03-25T12:08:24.629Z,93740.10
2019-03-25T12:10:53.334Z,93740.95
2019-03-25T12:13:22.139Z,93729.56
2019-03-25T12:15:50.872Z,93723.97
2019-03-25T12:18:19.580Z,93719.48
2019-03-25T12:20:48.266Z,93710.48
2019-03-25T12:23:26.028Z,93705.98
2019-03-25T12:25:47.969Z,93704.11
2019-03-25T12:28:16.702Z,93705.39
2019-03-25T12:30:45.599Z,93704.01
2019-03-25T12:33:14.511Z,93693.94
2019-03-25T12:35:43.264Z,93692.16
2019-03-25T12:38:11.970Z,93691.19
2019-03-25T12:40:41.168Z,93686.25
2019-03-25T12:43:09.907Z,93661.19
2019-03-25T12:45:39.249Z,93679.21
2019-03-25T12:48:09.059Z,93676.34
2019-03-25T12:50:38.049Z,93674.58
2019-03-25T12:53:06.874Z,93658.36
2019-03-25T12:55:35.690Z,93652.67
2019-03-25T12:58:03.143Z,93653.01
2019-03-25T13:00:36.911Z,93652.67
2019-03-25T13:03:06.423Z,93648.69
2019-03-25T13:05:35.361Z,93642.64
2019-03-25T13:08:04.214Z,93636.64
2019-03-25T13:10:33.007Z,93643.24
2019-03-25T13:13:01.864Z,93643.31
2019-03-25T13:15:30.552Z,93644.39
2019-03-25T13:17:59.375Z,93638.89
2019-03-25T13:20:28.101Z,93630.59
2019-03-25T13:22:56.869Z,93626.02
2019-03-25T13:25:25.808Z,93628.89
2019-03-25T13:27:54.540Z,93626.92
2019-03-25T13:30:23.459Z,93624.34
2019-03-25T13:32:52.575Z,93624.12
2019-03-25T13:35:21.395Z,93616.80
2019-03-25T13:37:50.188Z,93615.30
2019-03-25T13:40:19.287Z,93616.33
2019-03-25T13:42:48.127Z,93608.59
2019-03-25T13:45:16.849Z,93613.05
2019-03-25T13:47:45.540Z,93600.98
2019-03-25T13:50:14.241Z,93589.81
2019-03-25T13:52:43.258Z,93597.63
2019-03-25T13:55:12.166Z,93594.84
2019-03-25T13:57:40.874Z,93586.31
2019-03-25T14:00:10.065Z,93589.34
2019-03-25T14:02:38.926Z,93578.84
2019-03-25T14:05:08.515Z,93578.77
2019-03-25T14:07:37.249Z,93575.01
2019-03-25T14:10:09.156Z,93572.14
2019-03-25T14:12:39.484Z,93572.89
2019-03-25T14:15:11.435Z,93573.05
2019-03-25T14:17:40.468Z,93570.85
2019-03-25T14:20:09.886Z,93570.19
2019-03-25T14:22:38.868Z,93566.23
2019-03-25T14:25:08.187Z,93552.56
2019-03-25T14:27:36.969Z,93556.02
2019-03-25T14:30:14.345Z,93558.59
2019-03-25T14:32:39.237Z,93555.55
2019-03-25T14:35:09.007Z,93555.03
2019-03-25T14:37:37.705Z,93550.34
2019-03-25T14:40:08.630Z,93551.89
2019-03-25T14:42:37.399Z,93549.85
2019-03-25T14:45:07.553Z,93547.12
2019-03-25T14:47:36.315Z,93544.50
2019-03-25T14:50:07.861Z,93543.09
2019-03-25T14:52:36.600Z,93543.09
2019-03-25T14:55:06.032Z,93537.42
2019-03-25T14:57:34.734Z,93541.94
2019-03-25T15:00:04.661Z,93540.01
2019-03-25T15:02:33.701Z,93534.00
2019-03-25T15:05:02.683Z,93537.89
2019-03-25T15:07:32.884Z,93510.64
2019-03-25T15:10:01.763Z,93538.05
2019-03-25T15:12:30.776Z,93545.39
2019-03-25T15:14:59.759Z,93526.40
2019-03-25T15:17:28.442Z,93544.52
2019-03-25T15:19:57.342Z,93544.66
2019-03-25T15:22:26.335Z,93530.06
2019-03-25T15:24:55.048Z,93539.30
2019-03-25T15:27:23.803Z,93543.97
2019-03-25T15:29:52.504Z,93538.20
2019-03-25T15:32:21.231Z,93538.80
2019-03-25T15:34:50.229Z,93535.69
2019-03-25T15:37:18.872Z,93535.16
2019-03-25T15:39:47.617Z,93532.59
2019-03-25T15:42:16.411Z,93530.77
2019-03-25T15:44:45.118Z,93534.47
2019-03-25T15:47:14.139Z,93534.70
2019-03-25T15:49:42.884Z,93531.11
2019-03-25T15:52:11.596Z,93525.39
2019-03-25T15:54:40.284Z,93523.55
2019-03-25T15:57:09.221Z,93526.44
2019-03-25T15:59:37.898Z,93522.89
2019-03-25T16:02:06.664Z,93527.02
2019-03-25T16:04:35.564Z,93526.58
2019-03-25T16:07:05.460Z,93524.97
2019-03-25T16:09:34.155Z,93519.47
2019-03-25T16:12:04.907Z,93523.22
2019-03-25T16:14:33.311Z,93518.24
2019-03-25T16:17:01.972Z,93522.55
2019-03-25T16:19:30.652Z,93520.14
2019-03-25T16:21:59.449Z,93524.62
2019-03-25T16:24:28.141Z,93521.20
2019-03-25T16:26:56.818Z,93524.55
2019-03-25T16:29:25.497Z,93513.77
2019-03-25T16:31:54.200Z,93520.67
2019-03-25T16:34:34.199Z,93523.85
2019-03-25T16:37:02.878Z,93521.73
2019-03-25T16:39:31.551Z,93528.29
2019-03-25T16:42:00.466Z,93534.42
2019-03-25T16:44:29.139Z,93533.56
2019-03-25T16:46:57.824Z,93539.86
2019-03-25T16:49:26.531Z,93536.91
2019-03-25T16:51:55.223Z,93539.88
2019-03-25T16:54:23.882Z,93527.14
2019-03-25T16:56:52.563Z,93544.28
2019-03-25T16:59:21.496Z,93546.30
2019-03-25T17:01:50.196Z,93536.98
2019-03-25T17:04:18.868Z,93540.34
2019-03-25T17:06:47.554Z,93542.22
2019-03-25T17:09:16.234Z,93536.64
2019-03-25T17:11:44.924Z,93536.02
2019-03-25T17:14:13.608Z,93538.13
2019-03-25T17:16:42.263Z,93542.81
2019-03-25T17:19:10.969Z,93542.48
2019-03-25T17:21:39.687Z,93543.32
2019-03-25T17:24:08.447Z,93548.36
2019-03-25T17:26:42.396Z,93545.61
2019-03-25T17:29:07.569Z,93438.52
2019-03-25T17:31:36.267Z,93557.37
2019-03-25T17:34:05.001Z,93574.38
2019-03-25T17:36:33.724Z,93566.56
2019-03-25T17:39:03.137Z,93571.99
2019-03-25T17:41:31.941Z,93575.56
2019-03-25T17:44:00.654Z,93571.45
2019-03-25T17:46:29.331Z,93571.02
2019-03-25T17:48:58.037Z,93579.00
2019-03-25T17:51:26.810Z,93571.88
2019-03-25T17:53:55.568Z,93571.53
2019-03-25T17:56:24.275Z,93570.33
2019-03-25T17:58:53.190Z,93572.52
2019-03-25T18:01:31.783Z,93576.28
2019-03-25T18:03:52.472Z,93579.39
2019-03-25T18:06:21.163Z,93580.50
2019-03-25T18:08:49.879Z,93592.50
2019-03-25T18:11:18.566Z,93583.87
2019-03-25T18:13:47.295Z,93582.23
2019-03-25T18:16:15.996Z,93583.77
2019-03-25T18:18:44.682Z,93582.52
2019-03-25T18:21:13.909Z,93581.31
2019-03-25T18:23:42.714Z,93584.03
2019-03-25T18:26:11.396Z,93583.94
2019-03-25T18:28:40.074Z,93584.90
2019-03-25T18:31:08.758Z,93586.50
2019-03-25T18:33:37.446Z,93584.86
2019-03-25T18:36:06.141Z,93585.72
2019-03-25T18:38:34.820Z,93585.69
2019-03-25T18:41:03.548Z,93589.63
2019-03-25T18:43:32.342Z,93591.98
2019-03-25T18:46:01.371Z,93593.41
2019-03-25T18:48:30.048Z,93596.44
2019-03-25T18:51:01.916Z,93600.86
2019-03-25T18:53:30.591Z,93603.38
2019-03-25T18:55:59.298Z,93604.27
2019-03-25T18:58:28.021Z,93600.17
2019-03-25T19:00:56.736Z,93600.02
2019-03-25T19:03:25.408Z,93598.37
2019-03-25T19:05:54.206Z,93597.96
2019-03-25T19:08:23.626Z,93603.11
2019-03-25T19:10:52.299Z,93598.30
2019-03-25T19:13:20.996Z,93597.75
2019-03-25T19:15:49.669Z,93588.81
2019-03-25T19:18:18.363Z,93587.51
2019-03-25T19:20:47.867Z,93588.09
2019-03-25T19:23:16.545Z,93588.44
2019-03-25T19:25:45.225Z,93586.68
2019-03-25T19:28:14.333Z,93585.41
2019-03-25T19:30:43.086Z,93588.25
2019-03-25T19:33:11.731Z,93585.44
2019-03-25T19:35:40.451Z,93591.44
2019-03-25T19:38:09.283Z,93593.30
2019-03-25T19:40:37.970Z,93588.03
2019-03-25T19:43:06.656Z,93590.02
2019-03-25T19:45:35.328Z,93592.53
2019-03-25T19:48:04.544Z,93596.05
2019-03-25T19:50:33.451Z,93591.48
2019-03-25T19:53:02.127Z,93591.91
2019-03-25T19:55:30.798Z,93593.06
2019-03-25T19:57:59.497Z,93597.50
2019-03-25T20:00:36.492Z,93595.34
2019-03-25T20:03:05.832Z,93596.21
2019-03-25T20:05:34.513Z,93599.02
2019-03-25T20:08:04.947Z,93597.44
2019-03-25T20:10:36.092Z,93598.63
2019-03-25T20:13:05.074Z,93595.81
2019-03-25T20:15:45.584Z,93604.70
2019-03-25T20:18:05.082Z,93605.42
2019-03-25T20:20:33.799Z,93601.96
2019-03-25T20:23:02.512Z,93605.28
2019-03-25T20:25:31.187Z,93603.41
2019-03-25T20:27:59.850Z,93600.24
2019-03-25T20:30:28.587Z,93601.95
2019-03-25T20:32:57.243Z,93613.55
2019-03-25T20:35:25.919Z,93609.88
2019-03-25T20:37:54.580Z,93612.31
2019-03-25T20:40:23.269Z,93609.14
2019-03-25T20:42:51.935Z,93606.96
2019-03-25T20:45:20.634Z,93610.23
2019-03-25T20:47:49.542Z,93604.45
2019-03-25T20:50:18.217Z,93601.00
2019-03-25T20:52:47.045Z,93601.22
2019-03-25T20:55:23.387Z,93602.47
2019-03-25T20:57:52.123Z,93604.50
2019-03-25T21:00:23.704Z,93609.53
2019-03-25T21:02:52.426Z,93601.88
2019-03-25T21:05:21.108Z,93611.14
2019-03-25T21:07:49.796Z,93608.72
2019-03-25T21:10:18.558Z,93606.94
2019-03-25T21:12:47.398Z,93607.97
2019-03-25T21:15:16.136Z,93602.61
2019-03-25T21:17:44.769Z,93601.04
2019-03-25T21:20:13.563Z,93601.24
2019-03-25T21:22:42.222Z,93603.36
2019-03-25T21:25:11.012Z,93611.66
2019-03-25T21:27:39.723Z,93615.76
2019-03-25T21:30:08.711Z,93616.79
2019-03-25T21:32:37.408Z,93610.70
2019-03-25T21:35:07.343Z,93611.02
2019-03-25T21:37:36.229Z,93609.33
2019-03-25T21:40:06.842Z,93614.38
2019-03-25T21:42:36.007Z,93617.31
2019-03-25T21:45:07.973Z,93618.38
2019-03-25T21:47:36.730Z,93611.78
2019-03-25T21:50:09.243Z,93615.15
2019-03-25T21:52:38.206Z,93614.43
2019-03-25T21:55:07.795Z,93613.56
2019-03-25T21:57:36.471Z,93617.11
2019-03-25T22:00:07.347Z,93613.77
2019-03-25T22:02:36.048Z,93617.41
2019-03-25T22:05:06.674Z,93617.51
2019-03-25T22:07:35.344Z,93626.41
2019-03-25T22:10:04.819Z,93628.18
2019-03-25T22:12:33.498Z,93633.44
2019-03-25T22:15:02.167Z,93627.05
2019-03-25T22:17:30.855Z,93636.71
2019-03-25T22:19:59.553Z,93638.36
2019-03-25T22:22:28.223Z,93639.06
2019-03-25T22:24:56.905Z,93639.53
2019-03-25T22:27:25.594Z,93635.27
2019-03-25T22:29:54.272Z,93631.41
2019-03-25T22:32:22.942Z,93627.33
2019-03-25T22:34:51.669Z,93627.44
2019-03-25T22:37:20.389Z,93630.46
2019-03-25T22:39:49.079Z,93632.64
2019-03-25T22:42:17.771Z,93629.53
2019-03-25T22:44:46.456Z,93628.95
2019-03-25T22:47:15.139Z,93628.66
2019-03-25T22:49:43.820Z,93639.55
2019-03-25T22:52:12.487Z,93632.89
2019-03-25T22:54:41.157Z,93636.63
2019-03-25T22:57:09.830Z,93633.23
2019-03-25T22:59:38.578Z,93645.70
2019-03-25T23:02:07.355Z,93656.00
2019-03-25T23:04:36.064Z,93651.23
2019-03-25T23:07:04.730Z,93654.00
2019-03-25T23:09:33.412Z,93652.71
2019-03-25T23:12:02.099Z,93652.87
2019-03-25T23:14:31.053Z,93613.06
2019-03-25T23:16:59.900Z,93656.91
2019-03-25T23:19:28.752Z,93666.80
2019-03-25T23:21:57.669Z,93664.80
2019-03-25T23:24:26.517Z,93665.02
2019-03-25T23:26:55.343Z,93662.24
2019-03-25T23:29:24.192Z,93656.42
2019-03-25T23:31:53.064Z,93657.02
2019-03-25T23:34:21.930Z,93656.67
2019-03-25T23:36:50.750Z,93649.54
2019-03-25T23:39:19.614Z,93658.50
2019-03-25T23:41:48.536Z,93661.57
2019-03-25T23:44:17.829Z,93654.86
2019-03-25T23:46:46.655Z,93657.34
2019-03-25T23:49:15.512Z,93660.70
2019-03-25T23:51:44.338Z,93656.84
2019-03-25T23:54:14.094Z,93664.06
2019-03-25T23:56:43.044Z,93663.41
2019-03-25T23:59:11.890Z,93665.02
